Fairbanks, AK (99709)

12:38 PM AKST on February 09, 2016 (GMT -0900)
Skyflight Avenue | | Change Station
CLOSE
Current Station
Personal Weather Station
Location: Fairbanks, AK
Elevation: 1110 ft
Nearby Weather Stations

Elev 1110 ft 64.93 °N, 147.89 °W | Updated 12 minutes ago

Partly Cloudy
Partly Cloudy
13.4 °F
Feels Like 13 °F
N
0.0
Wind Variable Wind from West
Gusts 0.0 mph

Today
High -- | Low -- °F
--% Chance of Precip.
Yesterday
High -- | Low -- °F
Precip. -- in
Pressure 30.21 in
Visibility 10.0 miles
Clouds Few 12000 ft
Few 20000 ft
Windchill 13 °F
Dew Point 10 °F
Humidity 86%
Rainfall 0.00 in
Snow Depth Not available.
9:11 AM 5:00 PM
New Moon, 2% visible
METAR PAFA 092053Z 00000KT 10SM FEW120 FEW200 M22/M23 A3016 RMK AO2 SLP229 T12171228 51014 VISNO NE $
Pressure 30.21 in
Visibility 10.0 miles
Clouds Few 12000 ft
Few 20000 ft
Windchill 13 °F
Dew Point 10 °F
Humidity 86%
Rainfall 0.00 in
Snow Depth Not available.
9:11 AM 5:00 PM
New Moon, 2% visible
METAR PAFA 092053Z 00000KT 10SM FEW120 FEW200 M22/M23 A3016 RMK AO2 SLP229 T12171228 51014 VISNO NE $

10-Day Weather Forecast

Almanac

Astronomy

Feb. 09, 2016 Rise Set
Actual Time
Civil Twilight
Nautical Twilight
Astronomical Twilight
Moon
Length of Visible Light
Length of Day
Tomorrow will be .
, % of the Moon is Illuminated

Today's Extremes

State Highs State Lows

Community

WunderPhotos

Upload Photos

1,891,708 photos uploaded!

WunderBlog® & News

Nearby

Air Quality

  Air Quality AQ Index Pollutant
Not available.

Snow Depth

Station Depth Elevation

Earthquake Activity

City Distance Mag. Time & Date
Minimum magnitude displayed is 2.5.

Coastal Water Temperatures

Place Temperature

Stations

Nearby Weather Stations

Station Location Temp. Windchill Dew Point Humidity Wind Precip. Elev Updated Type
                   

Watches & Warnings

There are currently no watches in effect.